TKPKTNCM

Guest
Details From TKPK - St. Kitts/Bradshaw Intl
To TNCM - Princess Juliana Intl
Flight Number -
Tags generated
Created
Modified
Stats Distance 49 nm / 91 km
Max Altitude 6,400 ft / 1,951 m
Waypoints 3
Social Downloads 5
Likes 0
Share VATSIM

Download

Looking for another format? Having issues loading an existing format? Contact us
Advertisement - Login to hide

Notes

Basic altitude profile: - Ascent Rate: 2500ft/min - Ascent Speed: 250kts - Cruise Altitude: 35000ft - Cruise Speed: 420kts - Descent Rate: 1500ft/min - Descent Speed: 250kts Options: - Use NATs: yes - Use PACOTS: yes - Use low airways: yes - Use high airways: yes

Route

TKPK ESVAN TNCM

ID Type Via Altitude (ft/m) Position (lat/lon) Dist (leg/tot) Name
O TKPK APT - 0 / 0 17.31120 / -62.71870 - / 0 nm St. Kitts/Bradshaw Intl
ESVAN FIX - 6,400 / 1,951 17.58610 / -62.89020 19 / 19 nm
O TNCM APT - 0 / 0 18.04090 / -63.10890 30 / 49 nm Princess Juliana Intl

Altitude Profile

Advertisement - Login to hide

TKPK

Details ICAO TKPK (SKB)
Name St. Kitts/Bradshaw Intl
Region Saint Kitts and Nevis
Timezone America/St_Kitts (UTC-4.0)
Stats Elevation 169 ft / 52 m (AMSL)
Location 17.311200° -62.718700°
Runways 1
Magnetic Variation 14.508° W

METAR

TKPK 120000Z 05013KT 9999 FEW018 24/21 Q1015

Decode

TAF

TAF TKPK 112320Z 1200/1224 07012KT P6SM VCSH SCT016 FM121400 06014KT P6SM VCSH FEW025 SCT050 AMD NOT SKED 1202/1211

Decode

Departure Runways

ID Width Length Bearing (true/mag) Surface Threshold Overrun Markings Lighting
07 148 ft / 45 m 7,620 ft / 2,323 m 56.95° / 71.45° ASPHALT 200 ft / 61 m 0 ft / 0 m APP EDGE THRESHOLD
25 148 ft / 45 m 7,620 ft / 2,323 m 236.95° / 251.46° ASPHALT 0 ft / 0 m 0 ft / 0 m APP EDGE THRESHOLD REIL-OMNI

TNCM

Details ICAO TNCM (SXM)
Name Princess Juliana Intl
Region Caribbean Netherlands, Aruba, Curaçao, Sint Maarten
Timezone Unknown
Stats Elevation 14 ft / 4 m (AMSL)
Location 18.040900° -63.108900°
Runways 1
Magnetic Variation 14.380° W

METAR

TNCM 112332Z COR 07018G29KT 2000 +TSRA FEW012CB BKN013TCU 24/21 Q1017

Decode

TAF

TAF TNCM 112345Z 1200/1224 07010KT P6SM VCSH SCT016 TEMPO 1200/1203 07015G22KT 5SM TSRA FEW020CB BKN030 FM121400 08014KT P6SM SHRA FEW025 SCT050 FM121800 09013KT P6SM SCT025 SCT060

Decode

Destination Runways

ID Width Length Bearing (true/mag) Surface Threshold Overrun Markings Lighting
10 148 ft / 45 m 7,553 ft / 2,302 m 81.44° / 95.82° ASPHALT 331 ft / 101 m 164 ft / 50 m PREC-APP EDGE THRESHOLD REIL-OMNI
28 148 ft / 45 m 7,553 ft / 2,302 m 261.45° / 275.83° ASPHALT 0 ft / 0 m 200 ft / 61 m APP EDGE THRESHOLD

Popular Alternatives